createdAt,value
2023-08-16T00:00:23.644Z,89.86
2023-08-16T00:01:25.351Z,89.58
2023-08-16T00:02:26.971Z,89.43
2023-08-16T00:03:28.798Z,89.38
2023-08-16T00:04:30.495Z,89.61
2023-08-16T00:05:33.316Z,89.70
2023-08-16T00:06:34.946Z,90.31
2023-08-16T00:07:36.509Z,90.97
2023-08-16T00:08:38.085Z,91.28
2023-08-16T00:09:40.581Z,91.26
2023-08-16T00:10:42.198Z,90.97
2023-08-16T00:11:44.000Z,90.36
2023-08-16T00:12:45.687Z,90.49
2023-08-16T00:13:47.276Z,91.05
2023-08-16T00:14:48.835Z,89.97
2023-08-16T00:15:50.632Z,90.95
2023-08-16T00:16:52.446Z,90.60
2023-08-16T00:17:54.697Z,90.67
2023-08-16T00:18:56.214Z,89.96
2023-08-16T00:19:57.754Z,90.20
2023-08-16T00:21:00.391Z,91.78
2023-08-16T00:22:02.317Z,90.66
2023-08-16T00:23:04.192Z,91.64
2023-08-16T00:24:06.502Z,91.64
2023-08-16T00:25:08.330Z,91.08
2023-08-16T00:26:10.102Z,90.90
2023-08-16T00:27:11.743Z,91.27
2023-08-16T00:28:13.351Z,91.64
2023-08-16T00:29:14.928Z,91.69
2023-08-16T00:30:16.577Z,92.09
2023-08-16T00:31:19.255Z,92.64
2023-08-16T00:32:20.821Z,92.71
2023-08-16T00:33:22.857Z,92.16
2023-08-16T00:34:24.601Z,92.23
2023-08-16T00:35:26.219Z,91.94
2023-08-16T00:36:28.259Z,92.50
2023-08-16T00:37:29.925Z,91.67
2023-08-16T00:38:31.495Z,92.02
2023-08-16T00:39:33.815Z,91.32
2023-08-16T00:40:35.377Z,91.11
2023-08-16T00:41:37.003Z,91.66
2023-08-16T00:42:38.583Z,92.49
2023-08-16T00:43:40.699Z,91.83
2023-08-16T00:44:44.785Z,92.56
2023-08-16T00:45:47.161Z,92.45
2023-08-16T00:46:48.659Z,92.32
2023-08-16T00:47:50.448Z,91.16
2023-08-16T00:48:52.258Z,91.42
2023-08-16T00:49:54.095Z,92.13
2023-08-16T00:50:55.704Z,92.02
2023-08-16T00:51:57.561Z,91.42
2023-08-16T00:52:59.385Z,91.76
2023-08-16T00:54:01.028Z,91.67
2023-08-16T00:55:03.631Z,92.47
2023-08-16T00:56:06.226Z,92.45
2023-08-16T00:57:10.088Z,92.49
2023-08-16T00:58:11.704Z,92.29
2023-08-16T00:59:15.400Z,92.26
2023-08-16T01:00:17.172Z,91.84
2023-08-16T01:01:18.852Z,93.94
2023-08-16T01:02:21.042Z,93.19
2023-08-16T01:03:22.686Z,94.05
2023-08-16T01:04:24.444Z,94.18
2023-08-16T01:05:26.406Z,93.78
2023-08-16T01:06:28.022Z,93.72
2023-08-16T01:07:30.142Z,92.97
2023-08-16T01:08:33.211Z,93.46
2023-08-16T01:09:35.331Z,94.21
2023-08-16T01:10:47.208Z,93.18
2023-08-16T01:12:00.615Z,92.77
2023-08-16T01:13:11.341Z,92.55
2023-08-16T01:14:17.946Z,92.40
2023-08-16T01:15:22.609Z,92.21
2023-08-16T01:16:25.626Z,91.91
2023-08-16T01:17:28.258Z,91.61
2023-08-16T01:18:30.938Z,92.24
2023-08-16T01:19:34.148Z,91.60
2023-08-16T01:20:37.023Z,92.07
2023-08-16T01:21:47.457Z,91.56
2023-08-16T01:22:59.963Z,91.58
2023-08-16T01:24:36.030Z,91.95
2023-08-16T01:25:51.014Z,92.24
2023-08-16T01:26:54.241Z,92.47
2023-08-16T01:27:56.625Z,92.59
2023-08-16T01:28:58.626Z,92.59
2023-08-16T01:30:00.392Z,92.59
2023-08-16T01:31:05.036Z,92.67
2023-08-16T01:32:07.334Z,94.18
2023-08-16T01:33:09.446Z,93.34
2023-08-16T01:34:11.197Z,93.56
2023-08-16T01:35:17.909Z,93.17
2023-08-16T01:36:20.642Z,93.97
2023-08-16T01:37:22.311Z,93.02
2023-08-16T01:38:24.389Z,93.74
2023-08-16T01:39:25.942Z,93.23
2023-08-16T01:40:30.279Z,93.10
2023-08-16T01:41:40.232Z,93.54
2023-08-16T01:42:45.052Z,94.74
2023-08-16T01:43:48.038Z,93.96
2023-08-16T01:44:50.569Z,93.84
2023-08-16T01:45:54.028Z,94.84
2023-08-16T01:46:55.996Z,94.18
2023-08-16T01:47:58.627Z,96.19
2023-08-16T01:49:01.682Z,95.56
2023-08-16T01:50:05.365Z,95.13
2023-08-16T01:51:07.504Z,95.28
2023-08-16T01:52:09.382Z,94.98
2023-08-16T01:53:10.953Z,94.15
2023-08-16T01:54:13.384Z,94.19
2023-08-16T01:55:15.838Z,94.89
2023-08-16T01:56:17.425Z,94.92
2023-08-16T01:57:19.113Z,95.53
2023-08-16T01:58:21.156Z,95.28
2023-08-16T01:59:22.742Z,95.28
2023-08-16T02:00:25.998Z,95.56
2023-08-16T02:01:28.023Z,95.21
2023-08-16T02:02:29.895Z,95.66
2023-08-16T02:03:33.399Z,95.24
2023-08-16T02:04:35.039Z,95.14
2023-08-16T02:05:36.683Z,94.24
2023-08-16T02:06:38.239Z,94.85
2023-08-16T02:07:39.857Z,96.00
2023-08-16T02:08:41.434Z,96.32
2023-08-16T02:09:42.998Z,95.94
2023-08-16T02:10:44.544Z,96.36
2023-08-16T02:11:46.116Z,96.15
2023-08-16T02:12:47.668Z,94.96
2023-08-16T02:13:49.450Z,94.66
2023-08-16T02:14:51.350Z,94.82
2023-08-16T02:16:04.292Z,95.11
2023-08-16T02:17:06.055Z,95.57
2023-08-16T02:18:12.150Z,95.00
2023-08-16T02:19:14.086Z,96.11
2023-08-16T02:20:15.688Z,96.05
2023-08-16T02:21:17.240Z,95.76
2023-08-16T02:22:18.853Z,96.59
2023-08-16T02:23:21.678Z,96.52
2023-08-16T02:24:23.332Z,95.91
2023-08-16T02:25:24.956Z,96.12
2023-08-16T02:26:26.956Z,96.65
2023-08-16T02:27:28.543Z,93.97
2023-08-16T02:28:30.431Z,95.86
2023-08-16T02:29:34.114Z,97.09
2023-08-16T02:30:35.749Z,97.70
2023-08-16T02:31:37.407Z,96.87
2023-08-16T02:32:39.061Z,96.93
2023-08-16T02:33:43.712Z,96.65
2023-08-16T02:34:45.315Z,96.67
2023-08-16T02:35:46.871Z,95.74
2023-08-16T02:36:48.465Z,96.23
2023-08-16T02:37:51.221Z,95.49
2023-08-16T02:38:53.423Z,95.86
2023-08-16T02:39:54.983Z,96.46
2023-08-16T02:40:56.633Z,96.23
2023-08-16T02:41:58.766Z,95.74
2023-08-16T02:43:00.340Z,96.41
2023-08-16T02:44:01.919Z,96.95
2023-08-16T02:45:03.646Z,96.71
2023-08-16T02:46:05.200Z,97.87
2023-08-16T02:47:07.140Z,99.72
2023-08-16T02:48:08.731Z,100.00
2023-08-16T02:49:10.340Z,100.00
2023-08-16T02:50:12.206Z,100.00
2023-08-16T02:51:13.833Z,99.45
2023-08-16T02:52:15.460Z,99.27
2023-08-16T02:53:17.688Z,98.42
2023-08-16T02:54:19.545Z,98.32
2023-08-16T02:55:21.097Z,98.27
2023-08-16T02:56:22.828Z,97.86
2023-08-16T02:57:24.651Z,97.56
2023-08-16T02:58:26.581Z,97.10
2023-08-16T02:59:28.141Z,98.70
2023-08-16T03:00:31.052Z,98.18
2023-08-16T03:01:32.655Z,97.78
2023-08-16T03:02:35.610Z,97.76
2023-08-16T03:03:37.326Z,97.92
2023-08-16T03:04:40.311Z,98.01
2023-08-16T03:05:41.992Z,97.46
2023-08-16T03:06:44.049Z,97.63
2023-08-16T03:07:45.686Z,97.25
2023-08-16T03:08:47.302Z,98.11
2023-08-16T03:09:48.889Z,97.42
2023-08-16T03:10:50.715Z,97.45
2023-08-16T03:11:52.286Z,95.90
2023-08-16T03:12:53.872Z,96.50
2023-08-16T03:13:55.713Z,96.91
2023-08-16T03:14:57.264Z,96.58
2023-08-16T03:16:00.357Z,97.84
2023-08-16T03:17:02.657Z,97.97
2023-08-16T03:18:04.949Z,97.97
2023-08-16T03:19:06.665Z,98.25
2023-08-16T03:20:10.698Z,98.32
2023-08-16T03:21:12.968Z,97.76
2023-08-16T03:22:14.636Z,98.04
2023-08-16T03:23:18.052Z,98.00
2023-08-16T03:24:19.682Z,97.46
2023-08-16T03:25:21.331Z,98.75
2023-08-16T03:26:23.400Z,98.13
2023-08-16T03:27:25.297Z,98.19
2023-08-16T03:28:27.103Z,98.38
2023-08-16T03:29:28.696Z,98.75
2023-08-16T03:30:30.302Z,98.49
2023-08-16T03:31:32.062Z,97.59
2023-08-16T03:32:33.725Z,97.19
2023-08-16T03:33:36.723Z,97.79
2023-08-16T03:34:39.889Z,97.10
2023-08-16T03:35:41.526Z,97.23
2023-08-16T03:36:43.271Z,97.40
2023-08-16T03:37:44.973Z,97.31
2023-08-16T03:38:46.595Z,97.32
2023-08-16T03:39:48.219Z,97.35
2023-08-16T03:40:49.884Z,97.85
2023-08-16T03:41:51.623Z,98.15
2023-08-16T03:42:53.188Z,98.19
2023-08-16T03:43:54.805Z,97.79
2023-08-16T03:44:56.470Z,97.63
2023-08-16T03:45:58.158Z,98.84
2023-08-16T03:46:59.759Z,97.74
2023-08-16T03:48:03.485Z,97.82
2023-08-16T03:49:05.130Z,98.03
2023-08-16T03:50:07.277Z,97.88
2023-08-16T03:51:09.474Z,97.33
2023-08-16T03:52:11.209Z,98.94
2023-08-16T03:53:12.852Z,98.88
2023-08-16T03:54:14.450Z,98.84
2023-08-16T03:55:16.115Z,99.14
2023-08-16T03:56:17.977Z,98.76
2023-08-16T03:57:19.862Z,100.00
2023-08-16T03:58:21.455Z,99.42
2023-08-16T03:59:23.797Z,100.00
2023-08-16T04:00:25.556Z,100.00
2023-08-16T04:01:27.246Z,98.93
2023-08-16T04:02:28.967Z,98.33
2023-08-16T04:03:30.688Z,99.15
2023-08-16T04:04:32.424Z,99.64
2023-08-16T04:05:34.173Z,98.47
2023-08-16T04:06:35.727Z,99.03
2023-08-16T04:07:37.391Z,99.66
2023-08-16T04:08:40.130Z,98.84
2023-08-16T04:09:41.774Z,99.19
2023-08-16T04:10:43.372Z,99.96
2023-08-16T04:11:44.910Z,99.56
2023-08-16T04:12:46.472Z,99.18
2023-08-16T04:13:48.053Z,100.00
2023-08-16T04:14:51.065Z,99.34
2023-08-16T04:15:52.784Z,98.75
2023-08-16T04:16:54.989Z,97.84
2023-08-16T04:17:56.908Z,97.52
2023-08-16T04:18:58.516Z,98.10
2023-08-16T04:20:00.343Z,98.51
2023-08-16T04:21:01.981Z,99.07
2023-08-16T04:22:03.670Z,99.10
2023-08-16T04:23:05.228Z,100.00
2023-08-16T04:24:07.261Z,100.00
2023-08-16T04:25:09.630Z,100.00
2023-08-16T04:26:11.335Z,100.00
2023-08-16T04:27:13.316Z,100.00
2023-08-16T04:28:14.970Z,100.00
2023-08-16T04:29:16.687Z,100.00
2023-08-16T04:30:18.677Z,100.00
2023-08-16T04:31:20.299Z,99.79
2023-08-16T04:32:21.996Z,100.00
2023-08-16T04:33:23.683Z,99.31
2023-08-16T04:34:25.310Z,98.96
2023-08-16T04:35:26.958Z,99.10
2023-08-16T04:36:28.598Z,99.27
2023-08-16T04:37:30.396Z,98.65
2023-08-16T04:38:32.091Z,98.51
2023-08-16T04:39:33.873Z,98.90
2023-08-16T04:40:35.777Z,98.32
2023-08-16T04:41:38.050Z,97.78
2023-08-16T04:42:39.674Z,97.69
2023-08-16T04:43:41.816Z,98.77
2023-08-16T04:44:43.916Z,98.44
2023-08-16T04:45:46.270Z,98.15
2023-08-16T04:46:50.757Z,98.69
2023-08-16T04:47:52.365Z,98.12
2023-08-16T04:48:54.737Z,97.74
2023-08-16T04:49:56.592Z,98.44
2023-08-16T04:50:58.244Z,97.67
2023-08-16T04:51:59.910Z,97.73
2023-08-16T04:53:02.297Z,97.73
2023-08-16T04:54:04.294Z,98.16
2023-08-16T04:55:07.288Z,97.84
2023-08-16T04:56:09.368Z,97.60
2023-08-16T04:57:10.986Z,97.01
2023-08-16T04:58:14.484Z,97.04
2023-08-16T04:59:22.083Z,97.37
2023-08-16T05:00:24.280Z,96.98
2023-08-16T05:01:32.091Z,97.80
2023-08-16T05:02:34.703Z,96.88
2023-08-16T05:03:36.348Z,96.73
2023-08-16T05:04:37.897Z,96.40
2023-08-16T05:05:39.511Z,95.88
2023-08-16T05:06:41.208Z,95.27
2023-08-16T05:07:42.877Z,94.55
2023-08-16T05:08:44.812Z,91.85
2023-08-16T05:09:46.440Z,89.50
2023-08-16T05:10:48.035Z,88.68
2023-08-16T05:11:49.729Z,87.41
2023-08-16T05:12:51.848Z,86.32
2023-08-16T05:13:53.632Z,84.38
2023-08-16T05:14:55.257Z,81.79
2023-08-16T05:15:57.940Z,80.40
2023-08-16T05:16:59.529Z,79.02
2023-08-16T05:18:01.215Z,77.63
2023-08-16T05:19:03.392Z,76.20
2023-08-16T05:20:07.823Z,74.96
2023-08-16T05:21:09.455Z,73.91
2023-08-16T05:22:11.021Z,74.22
2023-08-16T05:23:12.607Z,74.67
2023-08-16T05:24:14.193Z,75.21
2023-08-16T05:25:15.837Z,75.76
2023-08-16T05:26:17.459Z,76.56
2023-08-16T05:27:19.106Z,76.99
2023-08-16T05:28:20.954Z,77.93
2023-08-16T05:29:22.589Z,78.16
2023-08-16T05:30:24.142Z,78.08
2023-08-16T05:31:25.724Z,78.36
2023-08-16T05:32:27.405Z,77.89
2023-08-16T05:33:29.236Z,78.68
2023-08-16T05:34:31.001Z,80.02
2023-08-16T05:35:35.690Z,80.97
2023-08-16T05:36:46.987Z,81.79
2023-08-16T05:37:49.393Z,82.76
2023-08-16T05:38:50.933Z,82.79
2023-08-16T05:39:52.807Z,82.23
2023-08-16T05:40:54.504Z,84.23
2023-08-16T05:41:56.125Z,82.51
2023-08-16T05:42:57.721Z,81.84
2023-08-16T05:43:59.253Z,81.54
2023-08-16T05:45:00.875Z,81.79
2023-08-16T05:46:03.566Z,80.84
2023-08-16T05:47:05.398Z,80.87
2023-08-16T05:48:07.260Z,79.90
2023-08-16T05:49:09.481Z,77.86
2023-08-16T05:50:11.168Z,75.77
2023-08-16T05:51:12.770Z,73.94
2023-08-16T05:52:14.331Z,72.44
2023-08-16T05:53:15.921Z,69.37
2023-08-16T05:54:17.522Z,67.73
2023-08-16T05:55:19.106Z,67.09
2023-08-16T05:56:20.717Z,67.97
2023-08-16T05:57:22.757Z,67.12
2023-08-16T05:58:24.422Z,65.29
2023-08-16T05:59:26.124Z,65.71
2023-08-16T06:00:27.691Z,65.08
2023-08-16T06:01:29.357Z,65.00
2023-08-16T06:02:31.059Z,65.54
2023-08-16T06:03:32.841Z,63.77
2023-08-16T06:04:35.156Z,62.93
2023-08-16T06:05:36.646Z,61.83
2023-08-16T06:06:38.749Z,60.43
2023-08-16T06:07:40.440Z,60.98
2023-08-16T06:08:42.015Z,59.91
2023-08-16T06:09:43.593Z,58.59
2023-08-16T06:10:45.166Z,57.85
2023-08-16T06:11:46.722Z,57.73
2023-08-16T06:12:48.294Z,58.06
2023-08-16T06:13:49.980Z,55.68
2023-08-16T06:14:51.535Z,56.59
2023-08-16T06:15:53.140Z,55.63
2023-08-16T06:16:54.768Z,55.58
2023-08-16T06:17:56.359Z,56.14
2023-08-16T06:18:57.974Z,53.67
2023-08-16T06:19:59.525Z,53.81
2023-08-16T06:21:01.106Z,53.64
2023-08-16T06:22:03.296Z,53.40
2023-08-16T06:23:05.008Z,53.22
2023-08-16T06:24:07.302Z,51.93
2023-08-16T06:25:09.429Z,52.23
2023-08-16T06:26:10.924Z,52.17
2023-08-16T06:27:12.546Z,51.42
2023-08-16T06:28:14.134Z,51.14
2023-08-16T06:29:15.700Z,50.16
2023-08-16T06:30:17.339Z,48.91
2023-08-16T06:31:19.840Z,50.82
2023-08-16T06:32:21.539Z,50.64
2023-08-16T06:33:23.554Z,51.01
2023-08-16T06:34:25.535Z,50.51
2023-08-16T06:35:27.090Z,49.62
2023-08-16T06:36:29.189Z,48.86
2023-08-16T06:37:32.238Z,49.21
2023-08-16T06:38:33.877Z,47.06
2023-08-16T06:39:35.474Z,47.91
2023-08-16T06:40:37.275Z,47.86
2023-08-16T06:41:38.896Z,48.16
2023-08-16T06:42:43.350Z,48.27
2023-08-16T06:43:44.970Z,48.29
2023-08-16T06:44:46.821Z,46.53
2023-08-16T06:45:48.374Z,46.89
2023-08-16T06:46:50.020Z,46.48
2023-08-16T06:47:51.818Z,45.64
2023-08-16T06:48:54.123Z,44.87
2023-08-16T06:49:55.738Z,46.35
2023-08-16T06:50:57.488Z,46.32
2023-08-16T06:51:59.395Z,44.57
2023-08-16T06:53:01.061Z,44.95
2023-08-16T06:54:02.797Z,47.34
2023-08-16T06:55:04.714Z,45.11
2023-08-16T06:56:06.448Z,44.37
2023-08-16T06:57:08.109Z,44.53
2023-08-16T06:58:09.733Z,45.20
2023-08-16T06:59:11.821Z,45.94
2023-08-16T07:00:14.110Z,45.78
2023-08-16T07:01:15.635Z,44.29
2023-08-16T07:02:18.773Z,43.08
2023-08-16T07:03:20.797Z,42.30
2023-08-16T07:04:22.501Z,44.29
2023-08-16T07:05:26.593Z,43.07
2023-08-16T07:06:28.279Z,42.90
2023-08-16T07:07:31.639Z,42.22
2023-08-16T07:08:33.270Z,41.97
2023-08-16T07:09:34.863Z,40.91
2023-08-16T07:10:36.498Z,41.12
2023-08-16T07:11:39.422Z,40.60
2023-08-16T07:12:42.845Z,39.97
2023-08-16T07:13:44.887Z,40.22
2023-08-16T07:14:46.599Z,38.86
2023-08-16T07:15:48.203Z,38.26
2023-08-16T07:16:50.268Z,39.98
2023-08-16T07:17:51.856Z,38.96
2023-08-16T07:18:53.635Z,38.56
2023-08-16T07:19:55.376Z,37.77
2023-08-16T07:20:56.978Z,38.74
2023-08-16T07:21:59.753Z,37.74
2023-08-16T07:23:03.291Z,38.12
2023-08-16T07:24:06.922Z,38.34
2023-08-16T07:25:11.715Z,38.42
2023-08-16T07:26:14.938Z,38.46
2023-08-16T07:27:18.012Z,37.62
2023-08-16T07:28:21.173Z,36.24
2023-08-16T07:29:24.298Z,36.32
2023-08-16T07:30:27.650Z,37.69
2023-08-16T07:31:30.977Z,37.15
2023-08-16T07:32:33.059Z,37.58
2023-08-16T07:33:36.244Z,36.86
2023-08-16T07:34:37.902Z,36.83
2023-08-16T07:35:39.484Z,36.92
2023-08-16T07:36:41.159Z,35.96
2023-08-16T07:37:42.838Z,35.81
2023-08-16T07:38:45.108Z,36.61
2023-08-16T07:39:46.688Z,38.61
2023-08-16T07:40:48.912Z,38.12
2023-08-16T07:41:50.565Z,37.49
2023-08-16T07:42:52.145Z,36.73
2023-08-16T07:43:53.909Z,36.57
2023-08-16T07:44:55.478Z,35.60
2023-08-16T07:45:57.210Z,35.02
2023-08-16T07:46:58.831Z,37.72
2023-08-16T07:48:00.450Z,37.03
2023-08-16T07:49:02.036Z,37.00
2023-08-16T07:50:03.792Z,36.94
2023-08-16T07:51:05.690Z,37.74
2023-08-16T07:52:07.421Z,38.11
2023-08-16T07:53:10.082Z,38.46
2023-08-16T07:54:13.292Z,37.53
2023-08-16T07:55:16.338Z,36.46
2023-08-16T07:56:19.271Z,37.77
2023-08-16T07:57:22.161Z,36.55
2023-08-16T07:58:25.038Z,37.56
2023-08-16T07:59:28.335Z,38.55
2023-08-16T08:00:31.465Z,37.26
2023-08-16T08:01:34.403Z,37.66
2023-08-16T08:02:54.282Z,37.38
2023-08-16T08:03:59.531Z,37.62
2023-08-16T08:05:02.847Z,35.87
2023-08-16T08:06:05.078Z,36.04
2023-08-16T08:07:06.547Z,36.72
2023-08-16T08:08:09.145Z,35.46
2023-08-16T08:09:10.949Z,34.56
2023-08-16T08:10:12.587Z,35.89
2023-08-16T08:11:15.502Z,35.50
2023-08-16T08:12:17.539Z,37.01
2023-08-16T08:13:19.116Z,37.18
2023-08-16T08:14:20.664Z,37.99
2023-08-16T08:15:22.252Z,37.34
2023-08-16T08:16:24.535Z,37.05
2023-08-16T08:17:26.467Z,35.18
2023-08-16T08:18:28.063Z,35.82
2023-08-16T08:19:29.637Z,35.22
2023-08-16T08:20:31.218Z,32.20
2023-08-16T08:21:32.751Z,34.03
2023-08-16T08:22:34.351Z,33.78
2023-08-16T08:23:36.035Z,35.02
2023-08-16T08:24:37.657Z,34.68
2023-08-16T08:25:43.733Z,34.02
2023-08-16T08:26:46.052Z,33.43
2023-08-16T08:27:47.697Z,34.66
2023-08-16T08:28:49.264Z,34.75
2023-08-16T08:29:50.919Z,33.71
2023-08-16T08:30:54.039Z,33.78
2023-08-16T08:31:55.634Z,33.52
2023-08-16T08:32:59.582Z,33.25
2023-08-16T08:34:01.334Z,32.63
2023-08-16T08:35:06.152Z,33.70
2023-08-16T08:36:07.928Z,31.38
2023-08-16T08:37:09.742Z,31.81
2023-08-16T08:38:11.489Z,31.94
2023-08-16T08:39:13.188Z,31.71
2023-08-16T08:40:14.850Z,31.43
2023-08-16T08:41:20.639Z,32.93
2023-08-16T08:42:23.878Z,31.42
2023-08-16T08:43:29.273Z,32.58
2023-08-16T08:44:31.316Z,32.56
2023-08-16T08:45:32.846Z,30.27
2023-08-16T08:46:35.170Z,30.53
2023-08-16T08:47:36.898Z,30.29
2023-08-16T08:48:38.649Z,30.84
2023-08-16T08:49:40.787Z,30.68
2023-08-16T08:50:43.984Z,31.75
2023-08-16T08:51:45.637Z,30.34
2023-08-16T08:52:52.669Z,31.23
2023-08-16T08:53:54.304Z,30.15
2023-08-16T08:54:55.930Z,30.62
2023-08-16T08:56:04.034Z,31.41
2023-08-16T08:57:05.641Z,29.97
2023-08-16T08:58:07.277Z,31.17
2023-08-16T08:59:15.014Z,29.78
2023-08-16T09:00:21.052Z,30.94
2023-08-16T09:01:24.524Z,30.11
2023-08-16T09:02:29.140Z,31.60
2023-08-16T09:03:32.370Z,31.06
2023-08-16T09:04:34.396Z,29.44
2023-08-16T09:05:38.768Z,30.60
2023-08-16T09:06:40.533Z,30.12
2023-08-16T09:07:42.897Z,29.65
2023-08-16T09:08:46.851Z,28.89
2023-08-16T09:09:50.325Z,29.36
2023-08-16T09:10:51.996Z,29.09
2023-08-16T09:11:53.617Z,29.44
2023-08-16T09:12:55.519Z,29.39
2023-08-16T09:13:57.328Z,30.10
2023-08-16T09:14:59.210Z,30.38
2023-08-16T09:16:02.356Z,29.20
2023-08-16T09:17:04.015Z,29.59
2023-08-16T09:18:16.174Z,31.08
2023-08-16T09:19:17.706Z,30.16
2023-08-16T09:20:19.781Z,29.51
2023-08-16T09:21:25.767Z,29.85
2023-08-16T09:22:29.206Z,29.48
2023-08-16T09:23:33.547Z,29.74
2023-08-16T09:24:35.117Z,28.51
2023-08-16T09:25:36.690Z,27.41
2023-08-16T09:26:38.689Z,27.58
2023-08-16T09:27:44.621Z,27.97
2023-08-16T09:28:47.360Z,28.25
2023-08-16T09:29:51.070Z,28.27
2023-08-16T09:30:53.951Z,28.31
2023-08-16T09:31:56.899Z,27.84
2023-08-16T09:32:59.768Z,26.35
2023-08-16T09:34:03.013Z,28.36
2023-08-16T09:35:06.816Z,26.86
2023-08-16T09:36:09.722Z,26.64
2023-08-16T09:37:14.262Z,26.53
2023-08-16T09:38:37.346Z,27.41
2023-08-16T09:39:39.406Z,26.93
2023-08-16T09:40:51.096Z,27.65
2023-08-16T09:41:52.723Z,28.37
2023-08-16T09:43:03.654Z,27.10
2023-08-16T09:44:09.086Z,26.96
2023-08-16T09:45:10.814Z,26.77
2023-08-16T09:46:12.919Z,26.33
2023-08-16T09:47:15.865Z,26.59
2023-08-16T09:48:24.877Z,26.50
2023-08-16T09:49:26.783Z,26.93
2023-08-16T09:50:51.833Z,26.93
2023-08-16T09:52:59.517Z,26.47
2023-08-16T09:54:03.218Z,27.06
2023-08-16T09:55:08.707Z,26.47
2023-08-16T09:58:21.293Z,26.28
2023-08-16T10:00:29.031Z,26.16
2023-08-16T10:01:31.839Z,26.10
2023-08-16T10:03:38.888Z,24.62
2023-08-16T10:05:47.572Z,26.08
2023-08-16T10:07:57.639Z,27.03
2023-08-16T10:08:59.513Z,26.36
2023-08-16T10:10:01.235Z,25.58
2023-08-16T10:11:03.184Z,25.95
2023-08-16T10:12:05.040Z,26.63
2023-08-16T10:13:08.526Z,25.25
2023-08-16T10:14:10.216Z,26.49
2023-08-16T10:15:11.850Z,26.49
2023-08-16T10:16:15.625Z,25.93
2023-08-16T10:17:18.382Z,27.01
2023-08-16T10:18:22.766Z,26.66
2023-08-16T10:19:24.839Z,27.58
2023-08-16T10:20:30.246Z,25.74
2023-08-16T10:21:35.548Z,28.59
2023-08-16T10:22:42.845Z,26.96
2023-08-16T10:23:45.615Z,27.94
2023-08-16T10:24:51.112Z,25.61
2023-08-16T10:25:53.457Z,26.64
2023-08-16T10:26:55.866Z,26.71
2023-08-16T10:27:59.464Z,26.62
2023-08-16T10:29:21.221Z,26.09
2023-08-16T10:30:24.830Z,27.05
2023-08-16T10:31:31.117Z,27.75
2023-08-16T10:32:33.637Z,27.00
2023-08-16T10:33:45.146Z,27.53
2023-08-16T10:34:47.101Z,26.79
2023-08-16T10:35:51.581Z,26.83
2023-08-16T10:36:53.240Z,27.48
2023-08-16T10:37:55.022Z,28.20
2023-08-16T10:39:00.185Z,27.36
2023-08-16T10:41:14.654Z,27.38
2023-08-16T10:42:17.009Z,26.30
2023-08-16T10:44:26.757Z,26.71
2023-08-16T10:46:38.247Z,27.70
2023-08-16T10:47:41.647Z,28.13
2023-08-16T10:48:43.262Z,28.83
2023-08-16T10:49:44.843Z,28.19
2023-08-16T10:50:59.500Z,28.08
2023-08-16T10:52:02.196Z,28.71
2023-08-16T10:53:05.771Z,27.54
2023-08-16T10:54:07.458Z,26.74
2023-08-16T10:55:09.653Z,27.52
2023-08-16T10:56:11.284Z,27.72
2023-08-16T10:57:13.942Z,27.94
2023-08-16T10:58:23.810Z,29.43
2023-08-16T10:59:25.434Z,28.86
2023-08-16T11:00:35.059Z,30.08
2023-08-16T11:01:36.846Z,28.69
2023-08-16T11:02:41.130Z,28.26
2023-08-16T11:03:45.028Z,29.20
2023-08-16T11:04:47.454Z,29.13
2023-08-16T11:05:50.210Z,28.16
2023-08-16T11:07:02.333Z,28.67
2023-08-16T11:08:10.437Z,28.95
2023-08-16T11:09:12.168Z,29.26
2023-08-16T11:10:14.571Z,29.58
2023-08-16T11:11:16.265Z,30.41
2023-08-16T11:12:19.623Z,29.39
2023-08-16T11:13:22.712Z,29.04
2023-08-16T11:14:24.311Z,30.10
2023-08-16T11:15:27.985Z,31.04
2023-08-16T11:16:29.991Z,29.88
2023-08-16T11:17:31.726Z,31.81
2023-08-16T11:18:35.298Z,31.95
2023-08-16T11:19:37.361Z,31.29
2023-08-16T11:20:39.342Z,29.69
2023-08-16T11:21:45.673Z,29.70
2023-08-16T11:22:48.094Z,29.98
2023-08-16T11:23:54.512Z,30.55
2023-08-16T11:24:56.450Z,31.28
2023-08-16T11:26:02.248Z,31.71
2023-08-16T11:27:06.353Z,32.40
2023-08-16T11:28:08.339Z,32.14
2023-08-16T11:29:09.932Z,33.38
2023-08-16T11:30:12.950Z,34.01
2023-08-16T11:31:14.565Z,33.47
2023-08-16T11:32:16.401Z,33.27
2023-08-16T11:33:18.141Z,33.74
2023-08-16T11:34:19.794Z,33.14
2023-08-16T11:35:21.541Z,34.02
2023-08-16T11:36:23.277Z,33.72
2023-08-16T11:37:25.281Z,34.82
2023-08-16T11:38:28.363Z,34.84
2023-08-16T11:39:29.982Z,35.70
2023-08-16T11:40:31.608Z,36.18
2023-08-16T11:41:33.294Z,35.92
2023-08-16T11:42:34.881Z,37.01
2023-08-16T11:43:37.236Z,37.86
2023-08-16T11:44:41.778Z,37.10
2023-08-16T11:45:43.529Z,37.09
2023-08-16T11:46:48.600Z,36.46
2023-08-16T11:47:51.749Z,37.46
2023-08-16T11:48:54.417Z,37.91
2023-08-16T11:49:56.100Z,37.70
2023-08-16T11:50:58.462Z,38.86
2023-08-16T11:52:00.274Z,37.67
2023-08-16T11:53:03.812Z,37.51
2023-08-16T11:54:06.431Z,38.24
2023-08-16T11:55:10.151Z,39.42
2023-08-16T11:56:12.976Z,38.12
2023-08-16T11:57:19.263Z,39.47
2023-08-16T11:58:20.875Z,38.57
2023-08-16T11:59:26.451Z,39.35
2023-08-16T12:00:30.604Z,39.31
2023-08-16T12:01:32.533Z,39.98
2023-08-16T12:02:34.245Z,38.41
2023-08-16T12:03:36.727Z,39.42
2023-08-16T12:04:43.449Z,38.55
2023-08-16T12:05:49.178Z,38.06
2023-08-16T12:06:50.975Z,39.02
2023-08-16T12:07:52.878Z,38.27
2023-08-16T12:08:55.135Z,37.47
2023-08-16T12:09:56.832Z,36.34
2023-08-16T12:11:00.044Z,37.81
2023-08-16T12:12:07.768Z,38.95
2023-08-16T12:13:14.115Z,39.21
2023-08-16T12:14:15.960Z,39.85
2023-08-16T12:15:17.543Z,38.73
2023-08-16T12:16:19.229Z,39.01
2023-08-16T12:17:20.924Z,40.65
2023-08-16T12:18:23.880Z,39.95
2023-08-16T12:19:25.544Z,40.44
2023-08-16T12:20:27.984Z,40.84
2023-08-16T12:21:29.651Z,41.80
2023-08-16T12:22:31.269Z,40.81
2023-08-16T12:23:32.850Z,40.68
2023-08-16T12:24:35.072Z,40.78
2023-08-16T12:25:36.658Z,40.44
2023-08-16T12:26:38.328Z,41.09
2023-08-16T12:27:40.654Z,42.36
2023-08-16T12:28:42.860Z,42.05
2023-08-16T12:29:44.346Z,40.45
2023-08-16T12:30:46.031Z,40.68
2023-08-16T12:31:47.655Z,42.20
2023-08-16T12:32:49.433Z,43.28
2023-08-16T12:33:51.040Z,41.84
2023-08-16T12:35:00.764Z,40.65
2023-08-16T12:36:03.435Z,39.88
2023-08-16T12:37:05.346Z,40.16
2023-08-16T12:38:06.943Z,39.54
2023-08-16T12:39:09.524Z,41.50
2023-08-16T12:40:11.745Z,42.18
2023-08-16T12:41:13.240Z,41.52
2023-08-16T12:42:14.875Z,40.96
2023-08-16T12:44:23.153Z,42.23
2023-08-16T12:45:24.884Z,42.10
2023-08-16T12:46:26.501Z,43.02
2023-08-16T12:47:28.326Z,43.08
2023-08-16T12:48:31.053Z,43.92
2023-08-16T12:49:32.760Z,43.15
2023-08-16T12:50:34.371Z,42.82
2023-08-16T12:51:37.492Z,41.79
2023-08-16T12:52:39.098Z,41.33
2023-08-16T12:53:42.973Z,41.38
2023-08-16T12:54:44.598Z,41.31
2023-08-16T12:55:49.132Z,39.89
2023-08-16T12:58:03.358Z,40.71
2023-08-16T12:59:17.396Z,40.62
2023-08-16T13:00:25.252Z,39.42
2023-08-16T13:01:41.763Z,40.31
2023-08-16T13:02:57.224Z,41.76
2023-08-16T13:04:01.498Z,43.56
2023-08-16T13:05:11.319Z,40.95
2023-08-16T13:07:28.049Z,42.03
2023-08-16T13:08:31.881Z,42.08
2023-08-16T13:09:48.099Z,40.97
2023-08-16T13:10:55.925Z,41.56
2023-08-16T13:12:08.390Z,41.87
2023-08-16T13:13:12.199Z,42.25
2023-08-16T13:14:30.122Z,40.93
2023-08-16T13:15:40.055Z,42.22
2023-08-16T13:16:47.185Z,41.29
2023-08-16T13:18:19.067Z,41.82
2023-08-16T13:19:24.422Z,43.01
2023-08-16T13:21:54.084Z,40.15
2023-08-16T13:23:10.095Z,40.56
2023-08-16T13:28:44.343Z,41.89
2023-08-16T13:31:05.889Z,41.53
2023-08-16T13:32:26.848Z,42.62
2023-08-16T13:33:30.488Z,42.10
2023-08-16T13:36:56.625Z,41.86
2023-08-16T13:37:59.224Z,42.44
2023-08-16T13:39:09.361Z,42.41
2023-08-16T13:40:20.267Z,43.26
2023-08-16T13:41:25.466Z,42.92
2023-08-16T13:43:43.616Z,42.07
2023-08-16T13:45:50.951Z,41.54
2023-08-16T13:46:52.676Z,42.42
2023-08-16T13:47:54.434Z,41.47
2023-08-16T13:48:56.053Z,41.29
2023-08-16T13:49:57.667Z,41.72
2023-08-16T13:50:59.256Z,41.86
2023-08-16T13:52:00.928Z,42.28
2023-08-16T13:53:02.600Z,42.70
2023-08-16T13:54:04.456Z,41.84
2023-08-16T13:55:06.512Z,41.76
2023-08-16T13:56:08.132Z,42.27
2023-08-16T13:57:09.768Z,42.48